createdAt,value
2019-04-28T00:02:20.538Z,101271.06
2019-04-28T00:04:54.628Z,101268.59
2019-04-28T00:07:26.653Z,101284.23
2019-04-28T00:09:56.253Z,101285.01
2019-04-28T00:12:27.547Z,101282.84
2019-04-28T00:14:58.115Z,101279.95
2019-04-28T00:17:28.339Z,101274.61
2019-04-28T00:20:01.347Z,101281.20
2019-04-28T00:22:38.954Z,101279.95
2019-04-28T00:25:27.621Z,101284.73
2019-04-28T00:27:57.192Z,101289.02
2019-04-28T00:30:26.592Z,101286.75
2019-04-28T00:32:57.335Z,101296.30
2019-04-28T00:35:28.561Z,101288.19
2019-04-28T00:37:58.118Z,101295.60
2019-04-28T00:40:27.760Z,101298.27
2019-04-28T00:43:00.811Z,101301.72
2019-04-28T00:45:31.747Z,101299.55
2019-04-28T00:48:01.434Z,101304.03
2019-04-28T00:50:31.598Z,101291.73
2019-04-28T00:53:01.840Z,101302.69
2019-04-28T00:55:32.046Z,101300.31
2019-04-28T00:58:03.426Z,101301.72
2019-04-28T01:00:35.764Z,101306.50
2019-04-28T01:03:05.458Z,101305.63
2019-04-28T01:05:36.701Z,101300.84
2019-04-28T01:08:07.402Z,101308.18
2019-04-28T01:10:37.144Z,101303.34
2019-04-28T01:13:06.852Z,101305.72
2019-04-28T01:15:49.719Z,101305.81
2019-04-28T01:18:43.930Z,101303.80
2019-04-28T01:21:15.370Z,101309.31
2019-04-28T01:23:45.906Z,101305.75
2019-04-28T01:26:15.541Z,101311.59
2019-04-28T01:28:46.068Z,101311.30
2019-04-28T01:31:40.500Z,101318.75
2019-04-28T01:34:20.360Z,101316.19
2019-04-28T01:36:51.881Z,101315.16
2019-04-28T01:39:21.408Z,101317.78
2019-04-28T01:41:50.912Z,101322.56
2019-04-28T01:44:20.401Z,101319.83
2019-04-28T01:46:49.794Z,101319.54
2019-04-28T01:49:19.711Z,101328.43
2019-04-28T01:52:00.904Z,101325.87
2019-04-28T01:54:30.672Z,101329.97
2019-04-28T01:57:01.418Z,101331.10
2019-04-28T01:59:31.111Z,101337.59
2019-04-28T02:02:02.308Z,101331.98
2019-04-28T02:04:32.533Z,101341.69
2019-04-28T02:07:02.136Z,101340.98
2019-04-28T02:09:32.040Z,101342.88
2019-04-28T02:12:02.448Z,101344.14
2019-04-28T02:14:34.427Z,101347.96
2019-04-28T02:17:04.030Z,101336.34
2019-04-28T02:19:36.217Z,101337.27
2019-04-28T02:22:32.031Z,101341.13
2019-04-28T02:25:03.993Z,101338.23
2019-04-28T02:27:33.481Z,101338.87
2019-04-28T02:30:06.172Z,101343.00
2019-04-28T02:32:36.763Z,101345.25
2019-04-28T02:35:10.418Z,101343.54
2019-04-28T02:37:40.550Z,101351.93
2019-04-28T02:40:11.851Z,101348.43
2019-04-28T02:42:41.438Z,101349.14
2019-04-28T02:45:12.012Z,101351.63
2019-04-28T02:47:42.387Z,101357.18
2019-04-28T02:50:33.102Z,101359.95
2019-04-28T02:53:11.677Z,101358.42
2019-04-28T02:55:43.147Z,101359.83
2019-04-28T02:58:14.477Z,101355.45
2019-04-28T03:01:01.470Z,101356.47
2019-04-28T03:03:17.142Z,101362.28
2019-04-28T03:05:51.287Z,101365.42
2019-04-28T03:08:22.985Z,101367.53
2019-04-28T03:10:52.669Z,101378.48
2019-04-28T03:13:22.363Z,101376.05
2019-04-28T03:15:54.254Z,101373.31
2019-04-28T03:18:23.657Z,101373.16
2019-04-28T03:20:53.907Z,101374.12
2019-04-28T03:23:23.792Z,101377.85
2019-04-28T03:26:06.404Z,101374.80
2019-04-28T03:28:43.315Z,101380.89
2019-04-28T03:32:03.895Z,101371.60
2019-04-28T03:34:04.165Z,101373.81
2019-04-28T03:36:33.653Z,101378.88
2019-04-28T03:39:04.295Z,101387.37
2019-04-28T03:41:34.978Z,101381.09
2019-04-28T03:44:06.861Z,101380.97
2019-04-28T03:46:44.167Z,101378.76
2019-04-28T03:49:32.026Z,101381.05
2019-04-28T03:52:02.923Z,101389.35
2019-04-28T03:54:34.190Z,101392.45
2019-04-28T03:57:03.919Z,101392.81
2019-04-28T03:59:35.103Z,101382.39
2019-04-28T04:02:04.549Z,101387.55
2019-04-28T04:04:34.219Z,101389.48
2019-04-28T04:07:03.749Z,101389.35
2019-04-28T04:09:54.924Z,101392.43
2019-04-28T04:12:31.126Z,101392.11
2019-04-28T04:15:14.860Z,101389.13
2019-04-28T04:18:03.403Z,101389.63
2019-04-28T04:20:34.177Z,101397.92
2019-04-28T04:23:05.088Z,101393.00
2019-04-28T04:25:35.965Z,101394.00
2019-04-28T04:28:05.796Z,101394.97
2019-04-28T04:30:35.307Z,101397.08
2019-04-28T04:33:04.906Z,101404.46
2019-04-28T04:35:36.040Z,101400.34
2019-04-28T04:38:05.679Z,101409.09
2019-04-28T04:40:35.195Z,101408.83
2019-04-28T04:43:05.903Z,101411.08
2019-04-28T04:45:40.383Z,101418.12
2019-04-28T04:48:11.645Z,101412.84
2019-04-28T04:50:41.269Z,101420.47
2019-04-28T04:53:12.412Z,101418.16
2019-04-28T04:55:41.954Z,101426.41
2019-04-28T04:58:11.596Z,101424.98
2019-04-28T05:01:10.935Z,101427.57
2019-04-28T05:03:44.830Z,101430.52
2019-04-28T05:06:32.191Z,101433.47
2019-04-28T05:09:01.823Z,101436.27
2019-04-28T05:11:32.327Z,101443.73
2019-04-28T05:14:03.643Z,101443.73
2019-04-28T05:16:33.258Z,101448.52
2019-04-28T05:19:02.900Z,101457.00
2019-04-28T05:21:33.434Z,101453.45
2019-04-28T05:24:31.570Z,101460.04
2019-04-28T05:27:01.176Z,101461.00
2019-04-28T05:29:31.867Z,101469.16
2019-04-28T05:32:03.785Z,101472.70
2019-04-28T05:34:33.531Z,101472.06
2019-04-28T05:37:03.994Z,101470.26
2019-04-28T05:39:37.686Z,101473.94
2019-04-28T05:42:07.105Z,101474.41
2019-04-28T05:44:37.738Z,101481.41
2019-04-28T05:47:09.889Z,101477.84
2019-04-28T05:50:01.539Z,101479.38
2019-04-28T05:52:50.235Z,101487.26
2019-04-28T05:55:24.142Z,101482.69
2019-04-28T05:58:15.246Z,101489.51
2019-04-28T06:01:07.171Z,101490.61
2019-04-28T06:03:36.951Z,101491.16
2019-04-28T06:06:06.389Z,101495.31
2019-04-28T06:08:53.606Z,101497.89
2019-04-28T06:11:33.655Z,101500.05
2019-04-28T06:14:03.931Z,101506.41
2019-04-28T06:16:34.701Z,101510.64
2019-04-28T06:19:04.472Z,101512.36
2019-04-28T06:21:35.975Z,101515.29
2019-04-28T06:24:05.693Z,101521.87
2019-04-28T06:26:35.690Z,101523.39
2019-04-28T06:29:06.661Z,101526.91
2019-04-28T06:31:36.106Z,101528.27
2019-04-28T06:34:06.513Z,101545.39
2019-04-28T06:36:36.090Z,101546.88
2019-04-28T06:39:09.147Z,101540.11
2019-04-28T06:41:42.702Z,101544.41
2019-04-28T06:44:14.041Z,101546.13
2019-04-28T06:46:43.579Z,101541.59
2019-04-28T06:49:13.952Z,101545.57
2019-04-28T06:51:44.433Z,101551.84
2019-04-28T06:54:14.113Z,101552.80
2019-04-28T06:56:43.932Z,101552.89
2019-04-28T06:59:13.846Z,101552.53
2019-04-28T07:01:43.380Z,101555.80
2019-04-28T07:04:13.935Z,101554.22
2019-04-28T07:06:43.498Z,101555.06
2019-04-28T07:09:13.970Z,101559.86
2019-04-28T07:11:43.445Z,101560.50
2019-04-28T07:14:13.872Z,101563.40
2019-04-28T07:16:43.393Z,101575.66
2019-04-28T07:19:14.289Z,101586.36
2019-04-28T07:22:05.777Z,101594.16
2019-04-28T07:24:35.685Z,101591.02
2019-04-28T07:27:06.031Z,101597.59
2019-04-28T07:29:36.271Z,101596.76
2019-04-28T07:32:05.844Z,101604.29
2019-04-28T07:34:35.180Z,101610.09
2019-04-28T07:37:04.645Z,101609.16
2019-04-28T07:39:34.329Z,101613.00
2019-04-28T07:42:03.736Z,101612.63
2019-04-28T07:44:33.191Z,101603.22
2019-04-28T07:47:02.763Z,101601.95
2019-04-28T07:49:32.185Z,101612.38
2019-04-28T07:52:09.110Z,101610.17
2019-04-28T07:54:40.128Z,101610.56
2019-04-28T07:57:09.611Z,101609.37
2019-04-28T07:59:39.198Z,101611.17
2019-04-28T08:02:08.744Z,101626.19
2019-04-28T08:04:38.142Z,101631.86
2019-04-28T08:07:07.752Z,101638.30
2019-04-28T08:09:37.155Z,101642.39
2019-04-28T08:12:06.612Z,101653.70
2019-04-28T08:14:36.157Z,101656.36
2019-04-28T08:17:05.630Z,101660.63
2019-04-28T08:19:35.078Z,101669.50
2019-04-28T08:22:04.665Z,101671.45
2019-04-28T08:24:34.103Z,101670.41
2019-04-28T08:27:03.543Z,101680.87
2019-04-28T08:29:33.094Z,101690.17
2019-04-28T08:32:31.283Z,101687.41
2019-04-28T08:35:00.777Z,101689.52
2019-04-28T08:37:30.192Z,101692.09
2019-04-28T08:39:59.612Z,101693.59
2019-04-28T08:42:29.511Z,101696.77
2019-04-28T08:44:58.950Z,101696.51
2019-04-28T08:47:28.377Z,101699.09
2019-04-28T08:49:57.842Z,101706.73
2019-04-28T08:52:27.300Z,101707.28
2019-04-28T08:54:56.738Z,101716.33
2019-04-28T08:57:26.206Z,101722.43
2019-04-28T08:59:55.671Z,101716.00
2019-04-28T09:02:25.161Z,101718.37
2019-04-28T09:04:54.772Z,101717.73
2019-04-28T09:07:24.176Z,101718.44
2019-04-28T09:09:53.603Z,101723.09
2019-04-28T09:12:23.170Z,101723.64
2019-04-28T09:14:52.626Z,101721.28
2019-04-28T09:17:22.060Z,101719.55
2019-04-28T09:19:51.534Z,101719.59
2019-04-28T09:22:20.936Z,101715.52
2019-04-28T09:24:50.345Z,101708.51
2019-04-28T09:27:21.278Z,101712.61
2019-04-28T09:29:50.708Z,101719.62
2019-04-28T09:32:21.954Z,101730.23
2019-04-28T09:34:54.327Z,101738.25
2019-04-28T09:37:24.772Z,101741.95
2019-04-28T09:40:00.346Z,101749.45
2019-04-28T09:42:57.849Z,101749.04
2019-04-28T09:45:32.300Z,101757.81
2019-04-28T09:48:03.499Z,101770.16
2019-04-28T09:50:34.770Z,101770.94
2019-04-28T09:53:05.541Z,101776.06
2019-04-28T09:55:37.788Z,101773.37
2019-04-28T09:58:07.273Z,101765.64
2019-04-28T10:00:39.152Z,101764.55
2019-04-28T10:03:08.736Z,101764.55
2019-04-28T10:05:40.594Z,101764.55
2019-04-28T10:08:10.141Z,101768.35
2019-04-28T10:10:39.831Z,101763.12
2019-04-28T10:13:09.334Z,101768.13
2019-04-28T10:15:38.852Z,101774.11
2019-04-28T10:18:08.513Z,101776.95
2019-04-28T10:20:37.950Z,101775.05
2019-04-28T10:23:07.461Z,101774.66
2019-04-28T10:25:37.083Z,101777.43
2019-04-28T10:28:06.535Z,101770.53
2019-04-28T10:30:37.406Z,101773.58
2019-04-28T10:33:08.298Z,101778.09
2019-04-28T10:35:38.362Z,101784.39
2019-04-28T10:38:07.950Z,101787.62
2019-04-28T10:40:44.190Z,101784.17
2019-04-28T10:43:13.880Z,101791.65
2019-04-28T10:45:46.433Z,101793.77
2019-04-28T10:48:16.181Z,101794.50
2019-04-28T10:50:45.932Z,101796.09
2019-04-28T10:53:15.621Z,101801.36
2019-04-28T10:55:45.224Z,101802.19
2019-04-28T10:58:16.056Z,101803.34
2019-04-28T11:00:47.843Z,101805.05
2019-04-28T11:03:20.173Z,101803.77
2019-04-28T11:05:49.623Z,101806.63
2019-04-28T11:08:25.649Z,101810.28
2019-04-28T11:10:55.184Z,101812.55
2019-04-28T11:13:24.664Z,101810.56
2019-04-28T11:15:54.149Z,101807.11
2019-04-28T11:18:24.172Z,101812.20
2019-04-28T11:20:53.590Z,101808.97
2019-04-28T11:23:24.117Z,101802.42
2019-04-28T11:25:54.865Z,101813.77
2019-04-28T11:28:25.590Z,101810.80
2019-04-28T11:30:56.256Z,101818.54
2019-04-28T11:33:47.756Z,101812.31
2019-04-28T11:36:19.189Z,101812.87
2019-04-28T11:38:51.275Z,101818.54
2019-04-28T11:41:22.577Z,101806.06
2019-04-28T11:43:52.457Z,101812.90
2019-04-28T11:46:23.598Z,101814.59
2019-04-28T11:48:53.421Z,101818.78
2019-04-28T11:51:23.031Z,101823.11
2019-04-28T11:53:52.597Z,101825.76
2019-04-28T11:56:25.969Z,101827.22
2019-04-28T11:58:56.540Z,101830.89
2019-04-28T12:01:27.078Z,101831.86
2019-04-28T12:04:01.023Z,101833.53
2019-04-28T12:06:30.458Z,101834.47
2019-04-28T12:09:14.916Z,101839.45
2019-04-28T12:11:49.339Z,101840.47
2019-04-28T12:14:34.693Z,101835.56
2019-04-28T12:17:22.864Z,101829.98
2019-04-28T12:19:55.498Z,101832.39
2019-04-28T12:22:25.070Z,101836.72
2019-04-28T12:24:55.791Z,101836.05
2019-04-28T12:27:27.119Z,101839.52
2019-04-28T12:29:56.651Z,101839.63
2019-04-28T12:32:27.158Z,101841.05
2019-04-28T12:34:58.548Z,101840.92
2019-04-28T12:37:28.011Z,101847.47
2019-04-28T12:39:57.985Z,101853.14
2019-04-28T12:42:29.914Z,101846.23
2019-04-28T12:45:00.378Z,101849.78
2019-04-28T12:47:29.927Z,101854.56
2019-04-28T12:50:12.559Z,101856.71
2019-04-28T12:52:43.825Z,101858.38
2019-04-28T12:55:14.482Z,101856.46
2019-04-28T12:57:44.326Z,101864.63
2019-04-28T13:00:24.643Z,101865.90
2019-04-28T13:03:19.106Z,101866.08
2019-04-28T13:06:01.139Z,101867.12
2019-04-28T13:08:21.882Z,101866.82
2019-04-28T13:10:51.799Z,101869.37
2019-04-28T13:13:22.438Z,101875.31
2019-04-28T13:15:51.994Z,101877.27
2019-04-28T13:18:23.384Z,101883.72
2019-04-28T13:20:52.802Z,101880.53
2019-04-28T13:23:24.186Z,101895.70
2019-04-28T13:25:55.162Z,101884.70
2019-04-28T13:28:24.601Z,101887.59
2019-04-28T13:30:54.126Z,101886.47
2019-04-28T13:33:26.612Z,101888.72
2019-04-28T13:35:57.896Z,101887.20
2019-04-28T13:38:31.041Z,101888.73
2019-04-28T13:41:02.665Z,101886.63
2019-04-28T13:43:32.202Z,101890.77
2019-04-28T13:46:03.100Z,101894.36
2019-04-28T13:48:32.633Z,101891.44
2019-04-28T13:51:03.439Z,101889.61
2019-04-28T13:53:32.933Z,101889.51
2019-04-28T13:56:04.193Z,101894.42
2019-04-28T13:58:53.808Z,101892.00
2019-04-28T14:01:55.299Z,101896.03
2019-04-28T14:04:50.186Z,101894.02
2019-04-28T14:07:19.854Z,101886.93
2019-04-28T14:09:49.301Z,101892.20
2019-04-28T14:12:18.987Z,101895.55
2019-04-28T14:14:49.673Z,101894.05
2019-04-28T14:17:21.119Z,101894.50
2019-04-28T14:19:50.770Z,101897.43
2019-04-28T14:22:21.265Z,101895.08
2019-04-28T14:24:50.847Z,101897.00
2019-04-28T14:27:21.519Z,101902.17
2019-04-28T14:29:52.949Z,101892.64
2019-04-28T14:32:22.665Z,101889.52
2019-04-28T14:34:55.423Z,101887.13
2019-04-28T14:37:25.030Z,101893.84
2019-04-28T14:39:55.756Z,101887.78
2019-04-28T14:42:26.124Z,101885.95
2019-04-28T14:44:55.798Z,101894.52
2019-04-28T14:47:26.511Z,101895.66
2019-04-28T14:50:02.456Z,101892.02
2019-04-28T14:52:30.519Z,101896.81
2019-04-28T14:55:00.102Z,101902.73
2019-04-28T14:57:30.036Z,101901.38
2019-04-28T14:59:59.538Z,101904.74
2019-04-28T15:02:40.472Z,101912.30
2019-04-28T15:05:18.305Z,101902.99
2019-04-28T15:08:22.018Z,101904.53
2019-04-28T15:11:10.626Z,101909.08
2019-04-28T15:13:40.447Z,101911.08
2019-04-28T15:16:10.217Z,101904.70
2019-04-28T15:18:39.772Z,101909.97
2019-04-28T15:21:09.586Z,101905.05
2019-04-28T15:23:40.214Z,101902.59
2019-04-28T15:26:12.837Z,101908.13
2019-04-28T15:28:42.820Z,101901.52
2019-04-28T15:31:12.326Z,101912.53
2019-04-28T15:33:43.226Z,101910.71
2019-04-28T15:36:12.824Z,101915.77
2019-04-28T15:38:42.251Z,101916.09
2019-04-28T15:41:21.457Z,101910.06
2019-04-28T15:43:45.810Z,101915.48
2019-04-28T15:46:16.334Z,101911.55
2019-04-28T15:48:47.238Z,101913.47
2019-04-28T15:51:18.160Z,101924.31
2019-04-28T15:53:50.699Z,101922.44
2019-04-28T15:56:34.530Z,101915.72
2019-04-28T15:59:04.357Z,101916.00
2019-04-28T16:01:33.950Z,101922.34
2019-04-28T16:04:03.473Z,101928.76
2019-04-28T16:06:32.890Z,101926.58
2019-04-28T16:09:02.331Z,101930.61
2019-04-28T16:11:31.890Z,101923.97
2019-04-28T16:14:01.304Z,101929.05
2019-04-28T16:16:31.921Z,101928.41
2019-04-28T16:19:02.979Z,101930.88
2019-04-28T16:21:32.484Z,101936.57
2019-04-28T16:24:01.895Z,101929.71
2019-04-28T16:26:33.245Z,101927.40
2019-04-28T16:29:02.762Z,101929.98
2019-04-28T16:31:33.638Z,101928.84
2019-04-28T16:34:03.422Z,101936.94
2019-04-28T16:36:33.028Z,101929.14
2019-04-28T16:39:02.556Z,101936.64
2019-04-28T16:41:40.840Z,101938.08
2019-04-28T16:44:20.053Z,101938.23
2019-04-28T16:46:50.371Z,101940.32
2019-04-28T16:49:21.673Z,101942.44
2019-04-28T16:51:51.158Z,101942.25
2019-04-28T16:54:23.178Z,101940.85
2019-04-28T16:57:07.570Z,101944.25
2019-04-28T16:59:47.108Z,101942.10
2019-04-28T17:02:49.209Z,101945.84
2019-04-28T17:05:19.332Z,101953.70
2019-04-28T17:07:53.147Z,101952.61
2019-04-28T17:10:21.214Z,101955.81
2019-04-28T17:12:50.963Z,101960.05
2019-04-28T17:15:20.532Z,101960.78
2019-04-28T17:17:50.333Z,101963.55
2019-04-28T17:20:20.228Z,101966.38
2019-04-28T17:22:49.851Z,101968.01
2019-04-28T17:25:19.942Z,101970.39
2019-04-28T17:27:49.619Z,101971.36
2019-04-28T17:30:21.030Z,101976.03
2019-04-28T17:32:51.484Z,101976.53
2019-04-28T17:35:21.500Z,101984.27
2019-04-28T17:37:51.083Z,101986.39
2019-04-28T17:40:22.456Z,101989.22
2019-04-28T17:42:52.176Z,101989.61
2019-04-28T17:45:22.154Z,101988.77
2019-04-28T17:47:54.729Z,101993.91
2019-04-28T17:50:26.485Z,101993.23
2019-04-28T17:52:55.915Z,101994.06
2019-04-28T17:55:25.333Z,102002.93
2019-04-28T17:57:54.896Z,101992.03
2019-04-28T18:00:42.569Z,101995.31
2019-04-28T18:03:19.882Z,101997.44
2019-04-28T18:05:57.615Z,102001.45
2019-04-28T18:08:30.698Z,102011.23
2019-04-28T18:11:00.263Z,102011.52
2019-04-28T18:13:33.225Z,102016.59
2019-04-28T18:16:26.868Z,102015.89
2019-04-28T18:19:00.598Z,102019.73
2019-04-28T18:21:31.352Z,102019.21
2019-04-28T18:24:01.222Z,102021.97
2019-04-28T18:26:32.134Z,102022.70
2019-04-28T18:29:01.785Z,102027.17
2019-04-28T18:31:51.695Z,102026.30
2019-04-28T18:34:45.090Z,102035.78
2019-04-28T18:37:41.030Z,102038.44
2019-04-28T18:40:22.821Z,102036.55
2019-04-28T18:43:10.351Z,102045.22
2019-04-28T18:45:42.252Z,102048.37
2019-04-28T18:48:11.851Z,102056.86
2019-04-28T18:50:44.642Z,102060.34
2019-04-28T18:53:14.303Z,102065.98
2019-04-28T18:55:44.022Z,102066.61
2019-04-28T18:58:15.788Z,102069.92
2019-04-28T19:00:51.822Z,102064.89
2019-04-28T19:03:23.341Z,102074.47
2019-04-28T19:05:54.311Z,102076.52
2019-04-28T19:08:49.429Z,102081.95
2019-04-28T19:11:41.346Z,102081.62
2019-04-28T19:14:19.219Z,102087.13
2019-04-28T19:17:08.230Z,102093.64
2019-04-28T19:19:42.753Z,102087.41
2019-04-28T19:22:12.433Z,102091.92
2019-04-28T19:24:42.717Z,102096.52
2019-04-28T19:27:14.058Z,102091.51
2019-04-28T19:29:44.273Z,102091.66
2019-04-28T19:32:13.825Z,102099.81
2019-04-28T19:34:43.458Z,102103.19
2019-04-28T19:37:14.479Z,102105.32
2019-04-28T19:39:47.136Z,102103.52
2019-04-28T19:42:16.825Z,102105.52
2019-04-28T19:44:46.430Z,102105.94
2019-04-28T19:47:16.860Z,102106.09
2019-04-28T19:49:47.792Z,102106.09
2019-04-28T19:52:17.836Z,102109.08
2019-04-28T19:55:24.409Z,102105.76
2019-04-28T19:58:06.011Z,102114.23
2019-04-28T20:01:01.494Z,102115.86
2019-04-28T20:03:30.949Z,102118.42
2019-04-28T20:06:01.506Z,102111.28
2019-04-28T20:08:32.338Z,102115.25
2019-04-28T20:11:02.939Z,102109.83
2019-04-28T20:13:32.568Z,102117.47
2019-04-28T20:16:02.184Z,102118.27
2019-04-28T20:18:31.790Z,102129.42
2019-04-28T20:21:02.685Z,102124.23
2019-04-28T20:23:33.870Z,102128.09
2019-04-28T20:26:03.289Z,102138.52
2019-04-28T20:28:35.663Z,102138.95
2019-04-28T20:31:05.479Z,102143.68
2019-04-28T20:33:38.566Z,102148.15
2019-04-28T20:36:27.114Z,102151.31
2019-04-28T20:39:01.669Z,102145.48
2019-04-28T20:41:31.553Z,102152.17
2019-04-28T20:44:02.111Z,102153.44
2019-04-28T20:46:31.612Z,102155.30
2019-04-28T20:49:01.388Z,102156.56
2019-04-28T20:51:30.858Z,102154.11
2019-04-28T20:54:02.148Z,102157.97
2019-04-28T20:56:33.787Z,102161.04
2019-04-28T20:59:03.393Z,102161.50
2019-04-28T21:01:34.445Z,102173.45
2019-04-28T21:04:05.253Z,102168.10
2019-04-28T21:06:37.315Z,102172.08
2019-04-28T21:09:09.687Z,102175.27
2019-04-28T21:11:41.015Z,102174.44
2019-04-28T21:14:12.094Z,102185.40
2019-04-28T21:16:41.829Z,102183.99
2019-04-28T21:19:11.506Z,102195.48
2019-04-28T21:21:41.055Z,102187.47
2019-04-28T21:24:10.550Z,102196.96
2019-04-28T21:26:42.182Z,102190.53
2019-04-28T21:29:12.805Z,102193.27
2019-04-28T21:31:42.410Z,102195.94
2019-04-28T21:34:11.936Z,102197.66
2019-04-28T21:36:41.404Z,102201.35
2019-04-28T21:39:11.934Z,102203.06
2019-04-28T21:41:41.561Z,102200.25
2019-04-28T21:44:33.987Z,102198.81
2019-04-28T21:47:24.174Z,102197.34
2019-04-28T21:49:54.689Z,102200.19
2019-04-28T21:52:25.446Z,102197.94
2019-04-28T21:54:58.514Z,102198.32
2019-04-28T21:57:29.174Z,102204.78
2019-04-28T22:00:00.443Z,102203.30
2019-04-28T22:02:30.684Z,102207.44
2019-04-28T22:05:03.394Z,102206.48
2019-04-28T22:07:33.367Z,102214.17
2019-04-28T22:10:04.748Z,102216.03
2019-04-28T22:12:34.721Z,102213.14
2019-04-28T22:15:05.454Z,102212.70
2019-04-28T22:17:35.571Z,102216.56
2019-04-28T22:20:06.120Z,102213.45
2019-04-28T22:22:37.139Z,102217.83
2019-04-28T22:25:13.042Z,102218.48
2019-04-28T22:27:42.937Z,102214.05
2019-04-28T22:30:14.094Z,102219.69
2019-04-28T22:32:44.342Z,102211.81
2019-04-28T22:35:15.800Z,102213.53
2019-04-28T22:37:45.385Z,102220.44
2019-04-28T22:40:15.280Z,102216.17
2019-04-28T22:42:44.801Z,102217.74
2019-04-28T22:45:14.674Z,102214.03
2019-04-28T22:47:46.375Z,102206.39
2019-04-28T22:50:39.299Z,102214.94
2019-04-28T22:53:10.132Z,102208.17
2019-04-28T22:55:49.373Z,102211.98
2019-04-28T22:58:29.611Z,102214.36
2019-04-28T23:01:19.360Z,102208.11
2019-04-28T23:03:54.705Z,102213.09
2019-04-28T23:06:25.423Z,102219.23
2019-04-28T23:08:57.444Z,102222.78
2019-04-28T23:11:28.731Z,102217.67
2019-04-28T23:14:01.669Z,102211.59
2019-04-28T23:16:31.389Z,102214.48
2019-04-28T23:19:03.046Z,102214.16
2019-04-28T23:21:53.248Z,102210.55
2019-04-28T23:24:23.518Z,102217.45
2019-04-28T23:26:54.292Z,102208.38
2019-04-28T23:29:24.821Z,102210.78
2019-04-28T23:31:54.434Z,102216.86
2019-04-28T23:34:25.310Z,102213.52
2019-04-28T23:36:58.090Z,102212.05
2019-04-28T23:39:27.860Z,102213.38
2019-04-28T23:42:05.638Z,102221.35
2019-04-28T23:44:35.130Z,102224.99
2019-04-28T23:47:07.401Z,102223.82
2019-04-28T23:49:38.196Z,102233.16
2019-04-28T23:52:13.964Z,102231.95
2019-04-28T23:54:47.073Z,102231.95
2019-04-28T23:57:17.860Z,102230.38
2019-04-28T23:59:48.916Z,102235.42
